sensor_id;sensor_type;location;lat;lon;timestamp;pressure;altitude;pressure_sealevel;temperature;humidity
63306;BME280;50735;52.060;1.248;2022-07-06T00:00:13;102396.93;;;14.95;46.42
63306;BME280;50735;52.060;1.248;2022-07-06T00:02:40;102402.22;;;15.28;46.38
63306;BME280;50735;52.060;1.248;2022-07-06T00:05:08;102402.05;;;15.26;47.06
63306;BME280;50735;52.060;1.248;2022-07-06T00:07:35;102399.45;;;15.20;46.33
63306;BME280;50735;52.060;1.248;2022-07-06T00:10:01;102395.27;;;14.93;46.80
63306;BME280;50735;52.060;1.248;2022-07-06T00:12:29;102393.78;;;14.67;46.86
63306;BME280;50735;52.060;1.248;2022-07-06T00:14:55;102393.71;;;14.61;46.50
63306;BME280;50735;52.060;1.248;2022-07-06T00:17:22;102391.90;;;14.73;46.57
63306;BME280;50735;52.060;1.248;2022-07-06T00:19:48;102392.64;;;14.83;46.61
63306;BME280;50735;52.060;1.248;2022-07-06T00:22:15;102393.01;;;14.78;46.77
63306;BME280;50735;52.060;1.248;2022-07-06T00:24:42;102385.61;;;14.72;46.71
63306;BME280;50735;52.060;1.248;2022-07-06T00:27:09;102381.62;;;14.68;47.31
63306;BME280;50735;52.060;1.248;2022-07-06T00:29:36;102386.03;;;14.61;46.97
63306;BME280;50735;52.060;1.248;2022-07-06T00:32:03;102382.19;;;14.40;47.09
63306;BME280;50735;52.060;1.248;2022-07-06T00:34:30;102380.54;;;14.53;47.02
63306;BME280;50735;52.060;1.248;2022-07-06T00:36:57;102381.66;;;14.51;46.69
63306;BME280;50735;52.060;1.248;2022-07-06T00:39:24;102383.69;;;14.51;47.17
63306;BME280;50735;52.060;1.248;2022-07-06T00:41:50;102381.40;;;14.29;46.99
63306;BME280;50735;52.060;1.248;2022-07-06T00:44:17;102382.19;;;14.41;46.80
63306;BME280;50735;52.060;1.248;2022-07-06T00:46:43;102380.76;;;14.39;46.78
63306;BME280;50735;52.060;1.248;2022-07-06T00:49:10;102380.08;;;14.58;47.03
63306;BME280;50735;52.060;1.248;2022-07-06T00:51:37;102379.19;;;14.27;46.88
63306;BME280;50735;52.060;1.248;2022-07-06T00:54:05;102376.79;;;14.66;47.09
63306;BME280;50735;52.060;1.248;2022-07-06T00:56:32;102375.33;;;14.19;47.27
63306;BME280;50735;52.060;1.248;2022-07-06T00:59:00;102375.87;;;14.13;48.05
63306;BME280;50735;52.060;1.248;2022-07-06T01:01:27;102374.95;;;14.30;47.76
63306;BME280;50735;52.060;1.248;2022-07-06T01:03:54;102374.52;;;13.85;47.58
63306;BME280;50735;52.060;1.248;2022-07-06T01:06:20;102371.68;;;14.00;47.13
63306;BME280;50735;52.060;1.248;2022-07-06T01:08:47;102368.79;;;13.95;47.46
63306;BME280;50735;52.060;1.248;2022-07-06T01:11:16;102369.56;;;14.29;47.15
63306;BME280;50735;52.060;1.248;2022-07-06T01:13:43;102371.28;;;13.87;47.56
63306;BME280;50735;52.060;1.248;2022-07-06T01:16:10;102377.96;;;13.81;47.67
63306;BME280;50735;52.060;1.248;2022-07-06T01:18:37;102381.54;;;13.98;47.84
63306;BME280;50735;52.060;1.248;2022-07-06T01:21:07;102384.82;;;13.68;47.84
63306;BME280;50735;52.060;1.248;2022-07-06T01:23:39;102384.23;;;13.82;47.65
63306;BME280;50735;52.060;1.248;2022-07-06T01:26:09;102382.81;;;13.96;47.96
63306;BME280;50735;52.060;1.248;2022-07-06T01:28:36;102387.27;;;13.75;48.03
63306;BME280;50735;52.060;1.248;2022-07-06T01:31:03;102387.39;;;13.71;48.07
63306;BME280;50735;52.060;1.248;2022-07-06T01:33:30;102389.98;;;13.69;48.05
63306;BME280;50735;52.060;1.248;2022-07-06T01:35:57;102394.12;;;13.64;48.10
63306;BME280;50735;52.060;1.248;2022-07-06T01:38:24;102394.12;;;13.62;47.82
63306;BME280;50735;52.060;1.248;2022-07-06T01:40:50;102394.40;;;13.56;48.12
63306;BME280;50735;52.060;1.248;2022-07-06T01:43:17;102391.11;;;13.68;48.22
63306;BME280;50735;52.060;1.248;2022-07-06T01:45:43;102392.67;;;13.67;48.25
63306;BME280;50735;52.060;1.248;2022-07-06T01:48:10;102394.90;;;13.46;48.14
63306;BME280;50735;52.060;1.248;2022-07-06T01:50:37;102394.96;;;13.65;48.44
63306;BME280;50735;52.060;1.248;2022-07-06T01:53:03;102398.92;;;13.46;48.13
63306;BME280;50735;52.060;1.248;2022-07-06T01:55:30;102405.22;;;13.60;48.09
63306;BME280;50735;52.060;1.248;2022-07-06T01:57:56;102406.67;;;13.55;48.31
63306;BME280;50735;52.060;1.248;2022-07-06T02:00:23;102397.90;;;13.34;48.43
63306;BME280;50735;52.060;1.248;2022-07-06T02:02:50;102397.79;;;13.50;48.29
63306;BME280;50735;52.060;1.248;2022-07-06T02:05:16;102396.81;;;13.44;48.15
63306;BME280;50735;52.060;1.248;2022-07-06T02:07:43;102396.90;;;13.37;48.27
63306;BME280;50735;52.060;1.248;2022-07-06T02:10:10;102397.15;;;13.13;48.33
63306;BME280;50735;52.060;1.248;2022-07-06T02:12:36;102394.95;;;13.29;48.23
63306;BME280;50735;52.060;1.248;2022-07-06T02:15:03;102389.02;;;13.23;48.34
63306;BME280;50735;52.060;1.248;2022-07-06T02:17:30;102392.37;;;13.15;48.55
63306;BME280;50735;52.060;1.248;2022-07-06T02:19:57;102391.43;;;13.14;48.93
63306;BME280;50735;52.060;1.248;2022-07-06T02:22:23;102389.77;;;13.09;48.69
63306;BME280;50735;52.060;1.248;2022-07-06T02:24:50;102389.72;;;13.07;49.40
63306;BME280;50735;52.060;1.248;2022-07-06T02:27:17;102393.29;;;13.02;48.47
63306;BME280;50735;52.060;1.248;2022-07-06T02:29:43;102395.67;;;13.02;48.56
63306;BME280;50735;52.060;1.248;2022-07-06T02:32:10;102390.29;;;13.05;48.56
63306;BME280;50735;52.060;1.248;2022-07-06T02:34:37;102389.84;;;13.08;48.76
63306;BME280;50735;52.060;1.248;2022-07-06T02:37:03;102393.49;;;13.35;48.79
63306;BME280;50735;52.060;1.248;2022-07-06T02:39:30;102394.42;;;13.15;48.71
63306;BME280;50735;52.060;1.248;2022-07-06T02:41:57;102392.02;;;13.17;48.78
63306;BME280;50735;52.060;1.248;2022-07-06T02:44:23;102392.26;;;13.17;48.73
63306;BME280;50735;52.060;1.248;2022-07-06T02:46:50;102395.94;;;13.19;48.75
63306;BME280;50735;52.060;1.248;2022-07-06T02:49:16;102395.63;;;13.21;48.87
63306;BME280;50735;52.060;1.248;2022-07-06T02:51:43;102399.47;;;13.21;48.98
63306;BME280;50735;52.060;1.248;2022-07-06T02:54:10;102404.43;;;13.21;48.85
63306;BME280;50735;52.060;1.248;2022-07-06T02:56:37;102408.07;;;13.22;48.80
63306;BME280;50735;52.060;1.248;2022-07-06T02:59:03;102407.94;;;13.21;48.98
63306;BME280;50735;52.060;1.248;2022-07-06T03:01:30;102402.01;;;13.21;48.98
63306;BME280;50735;52.060;1.248;2022-07-06T03:03:57;102402.44;;;13.43;49.09
63306;BME280;50735;52.060;1.248;2022-07-06T03:06:23;102399.93;;;13.21;49.26
63306;BME280;50735;52.060;1.248;2022-07-06T03:08:50;102399.14;;;13.21;49.27
63306;BME280;50735;52.060;1.248;2022-07-06T03:11:16;102397.13;;;13.23;49.29
63306;BME280;50735;52.060;1.248;2022-07-06T03:13:43;102395.50;;;13.22;49.41
63306;BME280;50735;52.060;1.248;2022-07-06T03:16:10;102390.11;;;13.21;49.39
63306;BME280;50735;52.060;1.248;2022-07-06T03:18:36;102389.15;;;13.43;49.61
63306;BME280;50735;52.060;1.248;2022-07-06T03:21:03;102393.15;;;13.25;49.56
63306;BME280;50735;52.060;1.248;2022-07-06T03:23:30;102392.61;;;13.28;49.37
63306;BME280;50735;52.060;1.248;2022-07-06T03:25:57;102385.77;;;13.27;49.38
63306;BME280;50735;52.060;1.248;2022-07-06T03:28:23;102386.00;;;13.29;49.34
63306;BME280;50735;52.060;1.248;2022-07-06T03:30:50;102385.82;;;13.30;49.35
63306;BME280;50735;52.060;1.248;2022-07-06T03:33:17;102386.10;;;13.28;49.25
63306;BME280;50735;52.060;1.248;2022-07-06T03:35:44;102386.83;;;13.26;49.15
63306;BME280;50735;52.060;1.248;2022-07-06T03:38:10;102382.86;;;13.25;49.47
63306;BME280;50735;52.060;1.248;2022-07-06T03:40:37;102381.37;;;13.24;49.19
63306;BME280;50735;52.060;1.248;2022-07-06T03:43:03;102388.18;;;13.19;49.44
63306;BME280;50735;52.060;1.248;2022-07-06T03:45:30;102388.50;;;13.15;49.17
63306;BME280;50735;52.060;1.248;2022-07-06T03:47:57;102393.39;;;13.15;49.57
63306;BME280;50735;52.060;1.248;2022-07-06T03:50:23;102396.72;;;13.13;49.38
63306;BME280;50735;52.060;1.248;2022-07-06T03:52:50;102394.53;;;13.12;49.45
63306;BME280;50735;52.060;1.248;2022-07-06T03:55:17;102391.30;;;13.09;49.17
63306;BME280;50735;52.060;1.248;2022-07-06T03:57:44;102392.11;;;13.09;49.63
63306;BME280;50735;52.060;1.248;2022-07-06T04:00:11;102395.67;;;13.06;49.95
63306;BME280;50735;52.060;1.248;2022-07-06T04:02:38;102399.43;;;13.04;50.49
63306;BME280;50735;52.060;1.248;2022-07-06T04:05:06;102403.95;;;13.00;50.19
63306;BME280;50735;52.060;1.248;2022-07-06T04:07:34;102398.00;;;12.99;49.73
63306;BME280;50735;52.060;1.248;2022-07-06T04:10:01;102396.02;;;13.01;49.87
63306;BME280;50735;52.060;1.248;2022-07-06T04:12:28;102393.76;;;13.06;49.88
63306;BME280;50735;52.060;1.248;2022-07-06T04:14:56;102394.81;;;13.10;49.85
63306;BME280;50735;52.060;1.248;2022-07-06T04:17:23;102396.76;;;13.14;49.95
63306;BME280;50735;52.060;1.248;2022-07-06T04:19:50;102396.01;;;13.37;49.83
63306;BME280;50735;52.060;1.248;2022-07-06T04:22:17;102392.26;;;13.17;49.88
63306;BME280;50735;52.060;1.248;2022-07-06T04:24:44;102386.72;;;13.34;50.19
63306;BME280;50735;52.060;1.248;2022-07-06T04:27:10;102382.46;;;13.09;50.10
63306;BME280;50735;52.060;1.248;2022-07-06T04:29:38;102382.54;;;13.11;50.03
63306;BME280;50735;52.060;1.248;2022-07-06T04:32:05;102391.19;;;13.52;50.12
63306;BME280;50735;52.060;1.248;2022-07-06T04:34:32;102397.42;;;13.12;50.27
63306;BME280;50735;52.060;1.248;2022-07-06T04:36:59;102399.82;;;13.51;50.51
63306;BME280;50735;52.060;1.248;2022-07-06T04:39:26;102399.39;;;13.14;50.71
63306;BME280;50735;52.060;1.248;2022-07-06T04:41:53;102395.67;;;13.14;50.85
63306;BME280;50735;52.060;1.248;2022-07-06T04:44:21;102397.18;;;13.18;51.04
63306;BME280;50735;52.060;1.248;2022-07-06T04:46:47;102400.01;;;13.21;50.58
63306;BME280;50735;52.060;1.248;2022-07-06T04:49:14;102400.62;;;13.44;51.39
63306;BME280;50735;52.060;1.248;2022-07-06T04:51:40;102399.07;;;13.07;51.17
63306;BME280;50735;52.060;1.248;2022-07-06T04:54:07;102399.21;;;13.17;50.84
63306;BME280;50735;52.060;1.248;2022-07-06T04:56:34;102397.87;;;13.21;50.76
63306;BME280;50735;52.060;1.248;2022-07-06T04:59:00;102396.27;;;13.26;50.71
63306;BME280;50735;52.060;1.248;2022-07-06T05:01:27;102393.35;;;13.48;50.40
63306;BME280;50735;52.060;1.248;2022-07-06T05:03:53;102393.37;;;13.10;50.35
63306;BME280;50735;52.060;1.248;2022-07-06T05:06:20;102397.92;;;13.36;50.48
63306;BME280;50735;52.060;1.248;2022-07-06T05:08:47;102407.02;;;13.22;50.33
63306;BME280;50735;52.060;1.248;2022-07-06T05:11:13;102413.19;;;13.46;50.57
63306;BME280;50735;52.060;1.248;2022-07-06T05:13:40;102406.60;;;13.47;50.42
63306;BME280;50735;52.060;1.248;2022-07-06T05:16:07;102410.11;;;13.55;49.99
63306;BME280;50735;52.060;1.248;2022-07-06T05:18:34;102409.63;;;13.55;49.84
63306;BME280;50735;52.060;1.248;2022-07-06T05:21:01;102404.50;;;13.57;49.68
63306;BME280;50735;52.060;1.248;2022-07-06T05:23:28;102406.15;;;13.43;49.44
63306;BME280;50735;52.060;1.248;2022-07-06T05:25:55;102402.36;;;13.66;49.19
63306;BME280;50735;52.060;1.248;2022-07-06T05:28:22;102399.43;;;13.96;49.07
63306;BME280;50735;52.060;1.248;2022-07-06T05:30:49;102395.23;;;13.62;48.79
63306;BME280;50735;52.060;1.248;2022-07-06T05:33:16;102391.71;;;13.84;48.61
63306;BME280;50735;52.060;1.248;2022-07-06T05:35:43;102390.53;;;13.93;48.53
63306;BME280;50735;52.060;1.248;2022-07-06T05:38:10;102394.44;;;13.91;48.39
63306;BME280;50735;52.060;1.248;2022-07-06T05:40:37;102395.69;;;13.93;48.23
63306;BME280;50735;52.060;1.248;2022-07-06T05:43:04;102403.93;;;13.96;48.20
63306;BME280;50735;52.060;1.248;2022-07-06T05:45:30;102403.01;;;13.83;48.11
63306;BME280;50735;52.060;1.248;2022-07-06T05:47:57;102402.25;;;13.86;48.07
63306;BME280;50735;52.060;1.248;2022-07-06T05:50:24;102401.99;;;14.07;47.98
63306;BME280;50735;52.060;1.248;2022-07-06T05:52:56;102398.72;;;14.09;48.24
63306;BME280;50735;52.060;1.248;2022-07-06T05:55:23;102395.66;;;14.18;48.09
63306;BME280;50735;52.060;1.248;2022-07-06T05:57:51;102389.41;;;14.28;47.80
63306;BME280;50735;52.060;1.248;2022-07-06T06:00:18;102387.70;;;14.06;47.59
63306;BME280;50735;52.060;1.248;2022-07-06T06:02:44;102394.47;;;14.00;48.02
63306;BME280;50735;52.060;1.248;2022-07-06T06:05:12;102393.40;;;13.93;47.61
63306;BME280;50735;52.060;1.248;2022-07-06T06:07:40;102391.12;;;13.83;48.26
63306;BME280;50735;52.060;1.248;2022-07-06T06:10:10;102389.46;;;13.95;47.85
63306;BME280;50735;52.060;1.248;2022-07-06T06:12:38;102391.78;;;14.13;47.83
63306;BME280;50735;52.060;1.248;2022-07-06T06:15:07;102396.74;;;14.15;47.87
63306;BME280;50735;52.060;1.248;2022-07-06T06:17:36;102398.73;;;14.05;47.98
63306;BME280;50735;52.060;1.248;2022-07-06T06:20:05;102397.53;;;14.17;47.77
63306;BME280;50735;52.060;1.248;2022-07-06T06:22:43;102391.52;;;14.10;48.22
63306;BME280;50735;52.060;1.248;2022-07-06T06:25:10;102393.06;;;14.22;47.54
63306;BME280;50735;52.060;1.248;2022-07-06T06:27:37;102394.42;;;14.59;47.29
63306;BME280;50735;52.060;1.248;2022-07-06T06:30:05;102393.75;;;14.28;47.30
63306;BME280;50735;52.060;1.248;2022-07-06T06:32:32;102397.26;;;14.63;47.31
63306;BME280;50735;52.060;1.248;2022-07-06T06:34:58;102400.22;;;14.20;47.43
63306;BME280;50735;52.060;1.248;2022-07-06T06:37:25;102402.51;;;14.42;47.39
63306;BME280;50735;52.060;1.248;2022-07-06T06:39:52;102416.02;;;14.09;47.63
63306;BME280;50735;52.060;1.248;2022-07-06T06:42:19;102416.19;;;14.03;47.78
63306;BME280;50735;52.060;1.248;2022-07-06T06:44:45;102418.78;;;14.11;47.47
63306;BME280;50735;52.060;1.248;2022-07-06T06:47:12;102421.48;;;13.91;47.50
63306;BME280;50735;52.060;1.248;2022-07-06T06:49:38;102420.55;;;14.33;47.59
63306;BME280;50735;52.060;1.248;2022-07-06T06:52:05;102423.53;;;14.09;47.42
63306;BME280;50735;52.060;1.248;2022-07-06T06:54:32;102422.66;;;13.92;47.62
63306;BME280;50735;52.060;1.248;2022-07-06T06:56:59;102422.94;;;13.96;47.53
63306;BME280;50735;52.060;1.248;2022-07-06T06:59:26;102418.67;;;14.29;47.30
63306;BME280;50735;52.060;1.248;2022-07-06T07:01:52;102412.18;;;14.24;46.93
63306;BME280;50735;52.060;1.248;2022-07-06T07:04:19;102409.94;;;14.61;46.65
63306;BME280;50735;52.060;1.248;2022-07-06T07:06:45;102413.56;;;14.78;46.24
63306;BME280;50735;52.060;1.248;2022-07-06T07:09:12;102415.47;;;14.92;46.01
63306;BME280;50735;52.060;1.248;2022-07-06T07:11:38;102415.46;;;14.96;45.59
63306;BME280;50735;52.060;1.248;2022-07-06T07:14:05;102416.89;;;15.36;45.22
63306;BME280;50735;52.060;1.248;2022-07-06T07:16:31;102416.28;;;15.05;45.33
63306;BME280;50735;52.060;1.248;2022-07-06T07:18:58;102410.17;;;14.80;45.50
63306;BME280;50735;52.060;1.248;2022-07-06T07:21:24;102409.56;;;14.69;45.74
63306;BME280;50735;52.060;1.248;2022-07-06T07:23:51;102407.07;;;15.26;44.76
63306;BME280;50735;52.060;1.248;2022-07-06T07:26:18;102400.65;;;15.50;44.26
63306;BME280;50735;52.060;1.248;2022-07-06T07:28:45;102400.01;;;15.46;43.94
63306;BME280;50735;52.060;1.248;2022-07-06T07:31:11;102396.90;;;15.32;43.87
63306;BME280;50735;52.060;1.248;2022-07-06T07:33:38;102393.40;;;15.60;44.07
63306;BME280;50735;52.060;1.248;2022-07-06T07:36:05;102389.37;;;15.73;43.73
63306;BME280;50735;52.060;1.248;2022-07-06T07:38:32;102390.95;;;15.99;43.59
63306;BME280;50735;52.060;1.248;2022-07-06T07:40:58;102390.61;;;15.78;43.81
63306;BME280;50735;52.060;1.248;2022-07-06T07:43:26;102390.28;;;15.68;44.74
63306;BME280;50735;52.060;1.248;2022-07-06T07:45:52;102391.43;;;15.92;44.99
63306;BME280;50735;52.060;1.248;2022-07-06T07:48:19;102391.03;;;15.79;45.55
63306;BME280;50735;52.060;1.248;2022-07-06T07:50:46;102389.76;;;16.03;45.96
63306;BME280;50735;52.060;1.248;2022-07-06T07:53:12;102380.92;;;16.50;44.56
63306;BME280;50735;52.060;1.248;2022-07-06T07:55:39;102380.85;;;16.95;43.30
63306;BME280;50735;52.060;1.248;2022-07-06T07:58:06;102376.25;;;16.57;43.88
63306;BME280;50735;52.060;1.248;2022-07-06T08:00:33;102376.81;;;16.97;43.46
63306;BME280;50735;52.060;1.248;2022-07-06T08:02:59;102373.92;;;16.70;44.40
63306;BME280;50735;52.060;1.248;2022-07-06T08:05:26;102374.11;;;16.17;45.12
63306;BME280;50735;52.060;1.248;2022-07-06T08:07:54;102371.53;;;16.30;45.37
63306;BME280;50735;52.060;1.248;2022-07-06T08:10:21;102363.75;;;16.52;44.81
63306;BME280;50735;52.060;1.248;2022-07-06T08:12:48;102361.54;;;17.04;44.03
63306;BME280;50735;52.060;1.248;2022-07-06T08:15:14;102362.01;;;17.73;42.89
63306;BME280;50735;52.060;1.248;2022-07-06T08:17:41;102350.78;;;18.87;41.73
63306;BME280;50735;52.060;1.248;2022-07-06T08:20:08;102349.54;;;19.50;39.87
63306;BME280;50735;52.060;1.248;2022-07-06T08:22:35;102338.19;;;19.63;39.38
63306;BME280;50735;52.060;1.248;2022-07-06T08:25:03;102342.08;;;19.36;39.64
63306;BME280;50735;52.060;1.248;2022-07-06T08:27:30;102341.21;;;18.85;40.84
63306;BME280;50735;52.060;1.248;2022-07-06T08:29:57;102330.35;;;19.21;40.74
63306;BME280;50735;52.060;1.248;2022-07-06T08:32:23;102337.94;;;20.34;39.85
63306;BME280;50735;52.060;1.248;2022-07-06T08:34:50;102337.42;;;19.56;40.19
63306;BME280;50735;52.060;1.248;2022-07-06T08:37:17;102335.72;;;20.07;39.85
63306;BME280;50735;52.060;1.248;2022-07-06T08:39:44;102337.94;;;20.27;39.28
63306;BME280;50735;52.060;1.248;2022-07-06T08:42:12;102338.23;;;20.43;38.98
63306;BME280;50735;52.060;1.248;2022-07-06T08:44:42;102335.96;;;20.32;39.45
63306;BME280;50735;52.060;1.248;2022-07-06T08:47:10;102342.67;;;20.03;40.16
63306;BME280;50735;52.060;1.248;2022-07-06T08:49:38;102341.32;;;19.97;40.13
63306;BME280;50735;52.060;1.248;2022-07-06T08:52:07;102342.08;;;20.38;39.62
63306;BME280;50735;52.060;1.248;2022-07-06T08:54:34;102345.68;;;20.28;39.31
63306;BME280;50735;52.060;1.248;2022-07-06T08:57:02;102343.89;;;20.47;39.46
63306;BME280;50735;52.060;1.248;2022-07-06T08:59:29;102343.09;;;20.18;39.64
63306;BME280;50735;52.060;1.248;2022-07-06T09:01:57;102336.85;;;19.32;40.93
63306;BME280;50735;52.060;1.248;2022-07-06T09:04:24;102334.78;;;20.22;39.84
63306;BME280;50735;52.060;1.248;2022-07-06T09:06:52;102332.68;;;20.68;39.78
63306;BME280;50735;52.060;1.248;2022-07-06T09:09:23;102331.34;;;21.06;38.46
63306;BME280;50735;52.060;1.248;2022-07-06T09:11:51;102332.27;;;21.17;37.67
63306;BME280;50735;52.060;1.248;2022-07-06T09:14:18;102335.34;;;21.34;37.40
63306;BME280;50735;52.060;1.248;2022-07-06T09:16:46;102332.99;;;21.33;37.70
63306;BME280;50735;52.060;1.248;2022-07-06T09:19:17;102331.48;;;21.29;37.42
63306;BME280;50735;52.060;1.248;2022-07-06T09:21:44;102328.48;;;20.48;38.44
63306;BME280;50735;52.060;1.248;2022-07-06T09:24:13;102325.08;;;20.69;38.63
63306;BME280;50735;52.060;1.248;2022-07-06T09:26:40;102324.75;;;20.40;38.91
63306;BME280;50735;52.060;1.248;2022-07-06T09:29:07;102326.44;;;20.54;39.14
63306;BME280;50735;52.060;1.248;2022-07-06T09:31:34;102330.20;;;20.94;38.70
63306;BME280;50735;52.060;1.248;2022-07-06T09:34:03;102335.91;;;20.94;38.70
63306;BME280;50735;52.060;1.248;2022-07-06T09:36:39;102334.80;;;21.26;38.64
63306;BME280;50735;52.060;1.248;2022-07-06T09:39:24;102338.26;;;19.37;41.25
63306;BME280;50735;52.060;1.248;2022-07-06T09:41:52;102337.95;;;19.97;40.70
63306;BME280;50735;52.060;1.248;2022-07-06T09:44:21;102339.60;;;20.13;40.39
63306;BME280;50735;52.060;1.248;2022-07-06T09:46:49;102341.95;;;19.81;41.35
63306;BME280;50735;52.060;1.248;2022-07-06T09:49:18;102342.28;;;19.78;41.80
63306;BME280;50735;52.060;1.248;2022-07-06T09:51:46;102342.66;;;20.04;41.60
63306;BME280;50735;52.060;1.248;2022-07-06T09:54:14;102346.60;;;19.78;41.88
63306;BME280;50735;52.060;1.248;2022-07-06T09:56:42;102353.38;;;19.28;42.77
63306;BME280;50735;52.060;1.248;2022-07-06T09:59:10;102351.05;;;18.89;43.56
63306;BME280;50735;52.060;1.248;2022-07-06T10:01:39;102351.62;;;18.98;43.48
63306;BME280;50735;52.060;1.248;2022-07-06T10:04:07;102346.70;;;19.48;42.56
63306;BME280;50735;52.060;1.248;2022-07-06T10:06:34;102353.66;;;19.27;43.08
63306;BME280;50735;52.060;1.248;2022-07-06T10:09:05;102353.73;;;19.51;42.86
63306;BME280;50735;52.060;1.248;2022-07-06T10:11:36;102349.82;;;18.96;43.82
63306;BME280;50735;52.060;1.248;2022-07-06T10:14:05;102342.74;;;19.48;43.12
63306;BME280;50735;52.060;1.248;2022-07-06T10:16:37;102353.62;;;19.16;44.19
63306;BME280;50735;52.060;1.248;2022-07-06T10:19:06;102343.01;;;20.13;42.87
63306;BME280;50735;52.060;1.248;2022-07-06T10:21:34;102341.15;;;20.78;41.56
63306;BME280;50735;52.060;1.248;2022-07-06T10:24:03;102343.13;;;20.33;41.01
63306;BME280;50735;52.060;1.248;2022-07-06T10:26:30;102347.88;;;20.76;40.11
63306;BME280;50735;52.060;1.248;2022-07-06T10:28:59;102354.03;;;21.46;39.31
63306;BME280;50735;52.060;1.248;2022-07-06T10:31:26;102352.52;;;21.93;38.78
63306;BME280;50735;52.060;1.248;2022-07-06T10:33:54;102350.83;;;21.64;38.59
63306;BME280;50735;52.060;1.248;2022-07-06T10:36:22;102352.13;;;21.42;38.62
63306;BME280;50735;52.060;1.248;2022-07-06T10:38:50;102346.65;;;21.01;39.61
63306;BME280;50735;52.060;1.248;2022-07-06T10:41:18;102343.87;;;20.46;40.21
63306;BME280;50735;52.060;1.248;2022-07-06T10:43:56;102337.96;;;20.41;40.66
63306;BME280;50735;52.060;1.248;2022-07-06T10:46:28;102328.91;;;21.12;40.40
63306;BME280;50735;52.060;1.248;2022-07-06T10:48:56;102329.75;;;21.26;40.78
63306;BME280;50735;52.060;1.248;2022-07-06T10:51:24;102328.93;;;21.06;39.86
63306;BME280;50735;52.060;1.248;2022-07-06T10:53:56;102326.63;;;21.01;40.34
63306;BME280;50735;52.060;1.248;2022-07-06T10:56:32;102327.92;;;20.51;40.75
63306;BME280;50735;52.060;1.248;2022-07-06T10:59:02;102325.85;;;19.91;41.56
63306;BME280;50735;52.060;1.248;2022-07-06T11:01:29;102324.95;;;20.31;41.42
63306;BME280;50735;52.060;1.248;2022-07-06T11:04:06;102321.71;;;20.44;41.38
63306;BME280;50735;52.060;1.248;2022-07-06T11:06:35;102314.32;;;20.79;41.02
63306;BME280;50735;52.060;1.248;2022-07-06T11:09:04;102311.15;;;21.04;40.82
63306;BME280;50735;52.060;1.248;2022-07-06T11:11:41;102303.32;;;20.71;41.03
63306;BME280;50735;52.060;1.248;2022-07-06T11:14:10;102301.43;;;20.65;40.96
63306;BME280;50735;52.060;1.248;2022-07-06T11:16:40;102305.48;;;21.46;40.51
63306;BME280;50735;52.060;1.248;2022-07-06T11:19:25;102309.62;;;21.58;39.68
63306;BME280;50735;52.060;1.248;2022-07-06T11:21:53;102311.63;;;21.26;39.55
63306;BME280;50735;52.060;1.248;2022-07-06T11:24:22;102311.41;;;21.47;39.91
63306;BME280;50735;52.060;1.248;2022-07-06T11:26:51;102303.37;;;21.70;38.60
63306;BME280;50735;52.060;1.248;2022-07-06T11:29:21;102305.85;;;21.68;38.89
63306;BME280;50735;52.060;1.248;2022-07-06T11:31:49;102301.20;;;21.51;39.15
63306;BME280;50735;52.060;1.248;2022-07-06T11:34:19;102295.38;;;21.55;39.30
63306;BME280;50735;52.060;1.248;2022-07-06T11:36:45;102298.04;;;21.40;39.62
63306;BME280;50735;52.060;1.248;2022-07-06T11:39:12;102297.64;;;21.52;39.87
63306;BME280;50735;52.060;1.248;2022-07-06T11:41:40;102298.00;;;21.03;40.22
63306;BME280;50735;52.060;1.248;2022-07-06T11:44:07;102295.74;;;21.19;40.74
63306;BME280;50735;52.060;1.248;2022-07-06T11:46:35;102300.95;;;20.32;41.80
63306;BME280;50735;52.060;1.248;2022-07-06T11:49:04;102296.78;;;20.65;41.70
63306;BME280;50735;52.060;1.248;2022-07-06T11:51:32;102291.99;;;20.57;41.56
63306;BME280;50735;52.060;1.248;2022-07-06T11:54:01;102288.97;;;20.83;41.82
63306;BME280;50735;52.060;1.248;2022-07-06T11:56:32;102289.40;;;21.20;41.11
63306;BME280;50735;52.060;1.248;2022-07-06T11:59:01;102293.06;;;21.01;41.35
63306;BME280;50735;52.060;1.248;2022-07-06T12:01:29;102292.17;;;21.39;40.83
63306;BME280;50735;52.060;1.248;2022-07-06T12:03:58;102298.70;;;20.89;40.82
63306;BME280;50735;52.060;1.248;2022-07-06T12:06:26;102291.41;;;20.98;41.01
63306;BME280;50735;52.060;1.248;2022-07-06T12:08:55;102290.36;;;20.57;41.46
63306;BME280;50735;52.060;1.248;2022-07-06T12:11:24;102289.36;;;20.93;41.51
63306;BME280;50735;52.060;1.248;2022-07-06T12:13:53;102283.50;;;21.23;41.25
63306;BME280;50735;52.060;1.248;2022-07-06T12:16:21;102278.52;;;21.32;41.15
63306;BME280;50735;52.060;1.248;2022-07-06T12:18:48;102278.26;;;21.37;41.04
63306;BME280;50735;52.060;1.248;2022-07-06T12:21:17;102273.34;;;21.18;40.97
63306;BME280;50735;52.060;1.248;2022-07-06T12:23:47;102270.12;;;20.86;41.45
63306;BME280;50735;52.060;1.248;2022-07-06T12:26:15;102268.04;;;21.15;41.28
63306;BME280;50735;52.060;1.248;2022-07-06T12:28:43;102271.94;;;21.52;41.02
63306;BME280;50735;52.060;1.248;2022-07-06T12:31:10;102271.18;;;21.68;40.60
63306;BME280;50735;52.060;1.248;2022-07-06T12:33:37;102271.49;;;21.21;40.89
63306;BME280;50735;52.060;1.248;2022-07-06T12:36:13;102266.98;;;21.22;41.32
63306;BME280;50735;52.060;1.248;2022-07-06T12:38:46;102272.96;;;21.46;41.01
63306;BME280;50735;52.060;1.248;2022-07-06T12:41:31;102268.29;;;21.79;40.78
63306;BME280;50735;52.060;1.248;2022-07-06T12:44:03;102261.52;;;21.46;40.31
63306;BME280;50735;52.060;1.248;2022-07-06T12:46:31;102259.34;;;21.46;40.78
63306;BME280;50735;52.060;1.248;2022-07-06T12:49:00;102253.69;;;21.63;40.10
63306;BME280;50735;52.060;1.248;2022-07-06T12:51:28;102248.77;;;21.63;39.83